sensor_id;sensor_type;location;lat;lon;timestamp;temperature;humidity
7117;DHT22;3600;48.568;7.870;2023-07-20T00:01:52;20.50;94.30
7117;DHT22;3600;48.568;7.870;2023-07-20T00:04:18;20.50;94.90
7117;DHT22;3600;48.568;7.870;2023-07-20T00:06:45;20.40;94.60
7117;DHT22;3600;48.568;7.870;2023-07-20T00:09:12;20.20;94.60
7117;DHT22;3600;48.568;7.870;2023-07-20T00:11:39;20.30;94.80
7117;DHT22;3600;48.568;7.870;2023-07-20T00:14:06;20.30;94.80
7117;DHT22;3600;48.568;7.870;2023-07-20T00:16:33;20.10;95.10
7117;DHT22;3600;48.568;7.870;2023-07-20T00:19:00;20.10;95.30
7117;DHT22;3600;48.568;7.870;2023-07-20T00:21:27;20.30;94.50
7117;DHT22;3600;48.568;7.870;2023-07-20T00:23:54;20.30;95.00
7117;DHT22;3600;48.568;7.870;2023-07-20T00:26:21;20.30;95.00
7117;DHT22;3600;48.568;7.870;2023-07-20T00:28:50;20.30;94.40
7117;DHT22;3600;48.568;7.870;2023-07-20T00:31:17;20.30;94.90
7117;DHT22;3600;48.568;7.870;2023-07-20T00:33:44;20.20;95.70
7117;DHT22;3600;48.568;7.870;2023-07-20T00:36:10;20.00;95.30
7117;DHT22;3600;48.568;7.870;2023-07-20T00:38:37;20.00;95.30
7117;DHT22;3600;48.568;7.870;2023-07-20T00:41:04;19.80;95.50
7117;DHT22;3600;48.568;7.870;2023-07-20T00:43:30;19.80;95.80
7117;DHT22;3600;48.568;7.870;2023-07-20T00:45:57;19.60;96.10
7117;DHT22;3600;48.568;7.870;2023-07-20T00:48:25;19.60;96.20
7117;DHT22;3600;48.568;7.870;2023-07-20T00:50:52;19.60;96.50
7117;DHT22;3600;48.568;7.870;2023-07-20T00:53:19;19.50;96.60
7117;DHT22;3600;48.568;7.870;2023-07-20T00:55:47;19.50;96.60
7117;DHT22;3600;48.568;7.870;2023-07-20T00:58:14;19.40;96.80
7117;DHT22;3600;48.568;7.870;2023-07-20T01:00:40;19.10;97.70
7117;DHT22;3600;48.568;7.870;2023-07-20T01:03:07;19.10;98.20
7117;DHT22;3600;48.568;7.870;2023-07-20T01:05:43;19.40;98.00
7117;DHT22;3600;48.568;7.870;2023-07-20T01:08:17;19.50;98.00
7117;DHT22;3600;48.568;7.870;2023-07-20T01:10:54;19.40;98.30
7117;DHT22;3600;48.568;7.870;2023-07-20T01:13:25;19.00;98.90
7117;DHT22;3600;48.568;7.870;2023-07-20T01:16:02;18.90;99.80
7117;DHT22;3600;48.568;7.870;2023-07-20T01:18:29;19.10;99.60
7117;DHT22;3600;48.568;7.870;2023-07-20T01:21:02;19.00;99.50
7117;DHT22;3600;48.568;7.870;2023-07-20T01:26:27;19.20;99.90
7117;DHT22;3600;48.568;7.870;2023-07-20T01:31:46;19.40;99.40
7117;DHT22;3600;48.568;7.870;2023-07-20T01:34:17;19.30;99.60
7117;DHT22;3600;48.568;7.870;2023-07-20T01:36:45;19.20;99.80
7117;DHT22;3600;48.568;7.870;2023-07-20T01:39:12;19.40;99.70
7117;DHT22;3600;48.568;7.870;2023-07-20T01:41:40;19.10;99.70
7117;DHT22;3600;48.568;7.870;2023-07-20T01:44:08;19.00;99.90
7117;DHT22;3600;48.568;7.870;2023-07-20T01:46:35;18.80;99.90
7117;DHT22;3600;48.568;7.870;2023-07-20T01:49:02;18.70;99.90
7117;DHT22;3600;48.568;7.870;2023-07-20T01:51:29;18.60;99.90
7117;DHT22;3600;48.568;7.870;2023-07-20T01:53:55;18.80;99.90
7117;DHT22;3600;48.568;7.870;2023-07-20T01:56:22;18.80;99.90
7117;DHT22;3600;48.568;7.870;2023-07-20T01:58:49;19.00;99.90
7117;DHT22;3600;48.568;7.870;2023-07-20T02:01:16;19.00;99.90
7117;DHT22;3600;48.568;7.870;2023-07-20T02:03:43;18.90;99.90
7117;DHT22;3600;48.568;7.870;2023-07-20T02:06:12;18.70;99.90
7117;DHT22;3600;48.568;7.870;2023-07-20T02:08:39;18.60;99.90
7117;DHT22;3600;48.568;7.870;2023-07-20T02:11:05;18.60;99.90
7117;DHT22;3600;48.568;7.870;2023-07-20T02:13:32;18.50;99.90
7117;DHT22;3600;48.568;7.870;2023-07-20T02:15:59;18.60;99.90
7117;DHT22;3600;48.568;7.870;2023-07-20T02:18:26;18.70;99.90
7117;DHT22;3600;48.568;7.870;2023-07-20T02:20:53;18.80;99.90
7117;DHT22;3600;48.568;7.870;2023-07-20T02:23:21;18.90;99.90
7117;DHT22;3600;48.568;7.870;2023-07-20T02:25:47;18.90;99.90
7117;DHT22;3600;48.568;7.870;2023-07-20T02:28:15;19.00;99.90
7117;DHT22;3600;48.568;7.870;2023-07-20T02:30:42;18.90;99.90
7117;DHT22;3600;48.568;7.870;2023-07-20T02:33:08;18.70;99.90
7117;DHT22;3600;48.568;7.870;2023-07-20T02:35:35;19.00;99.90
7117;DHT22;3600;48.568;7.870;2023-07-20T02:38:02;18.90;99.90
7117;DHT22;3600;48.568;7.870;2023-07-20T02:40:29;18.80;99.90
7117;DHT22;3600;48.568;7.870;2023-07-20T02:42:56;18.60;99.90
7117;DHT22;3600;48.568;7.870;2023-07-20T02:45:23;18.50;99.90
7117;DHT22;3600;48.568;7.870;2023-07-20T02:47:50;18.40;99.90
7117;DHT22;3600;48.568;7.870;2023-07-20T02:50:17;18.50;99.90
7117;DHT22;3600;48.568;7.870;2023-07-20T02:52:44;18.80;99.90
7117;DHT22;3600;48.568;7.870;2023-07-20T02:55:11;18.80;99.90
7117;DHT22;3600;48.568;7.870;2023-07-20T02:57:37;18.90;99.90
7117;DHT22;3600;48.568;7.870;2023-07-20T03:00:05;18.90;99.90
7117;DHT22;3600;48.568;7.870;2023-07-20T03:02:34;18.80;99.90
7117;DHT22;3600;48.568;7.870;2023-07-20T03:05:01;18.90;99.90
7117;DHT22;3600;48.568;7.870;2023-07-20T03:07:29;18.70;99.90
7117;DHT22;3600;48.568;7.870;2023-07-20T03:09:56;18.30;99.90
7117;DHT22;3600;48.568;7.870;2023-07-20T03:12:23;18.30;99.90
7117;DHT22;3600;48.568;7.870;2023-07-20T03:14:51;18.40;99.90
7117;DHT22;3600;48.568;7.870;2023-07-20T03:17:18;18.60;99.90
7117;DHT22;3600;48.568;7.870;2023-07-20T03:19:45;18.80;99.90
7117;DHT22;3600;48.568;7.870;2023-07-20T03:22:11;18.80;99.90
7117;DHT22;3600;48.568;7.870;2023-07-20T03:24:38;18.40;99.90
7117;DHT22;3600;48.568;7.870;2023-07-20T03:27:05;18.50;99.90
7117;DHT22;3600;48.568;7.870;2023-07-20T03:29:32;18.50;99.90
7117;DHT22;3600;48.568;7.870;2023-07-20T03:32:00;18.70;99.90
7117;DHT22;3600;48.568;7.870;2023-07-20T03:34:26;18.70;99.90
7117;DHT22;3600;48.568;7.870;2023-07-20T03:36:53;18.70;99.90
7117;DHT22;3600;48.568;7.870;2023-07-20T03:39:21;18.70;99.90
7117;DHT22;3600;48.568;7.870;2023-07-20T03:41:48;18.70;99.90
7117;DHT22;3600;48.568;7.870;2023-07-20T03:44:15;18.70;99.90
7117;DHT22;3600;48.568;7.870;2023-07-20T03:46:42;18.60;99.90
7117;DHT22;3600;48.568;7.870;2023-07-20T03:49:09;18.40;99.90
7117;DHT22;3600;48.568;7.870;2023-07-20T03:51:37;18.40;99.90
7117;DHT22;3600;48.568;7.870;2023-07-20T03:54:03;18.60;99.90
7117;DHT22;3600;48.568;7.870;2023-07-20T03:56:30;18.60;99.90
7117;DHT22;3600;48.568;7.870;2023-07-20T03:59:01;18.70;99.90
7117;DHT22;3600;48.568;7.870;2023-07-20T04:01:27;18.50;99.90
7117;DHT22;3600;48.568;7.870;2023-07-20T04:03:55;18.20;99.90
7117;DHT22;3600;48.568;7.870;2023-07-20T04:06:22;18.20;99.90
7117;DHT22;3600;48.568;7.870;2023-07-20T04:08:49;18.20;99.90
7117;DHT22;3600;48.568;7.870;2023-07-20T04:11:16;18.30;99.90
7117;DHT22;3600;48.568;7.870;2023-07-20T04:13:43;18.50;99.90
7117;DHT22;3600;48.568;7.870;2023-07-20T04:16:10;18.50;99.90
7117;DHT22;3600;48.568;7.870;2023-07-20T04:18:36;18.20;99.90
7117;DHT22;3600;48.568;7.870;2023-07-20T04:21:03;18.20;99.90
7117;DHT22;3600;48.568;7.870;2023-07-20T04:23:30;18.20;99.90
7117;DHT22;3600;48.568;7.870;2023-07-20T04:25:57;18.10;99.90
7117;DHT22;3600;48.568;7.870;2023-07-20T04:28:24;18.20;99.90
7117;DHT22;3600;48.568;7.870;2023-07-20T04:30:52;18.40;99.90
7117;DHT22;3600;48.568;7.870;2023-07-20T04:33:19;18.40;99.90
7117;DHT22;3600;48.568;7.870;2023-07-20T04:35:53;18.20;99.90
7117;DHT22;3600;48.568;7.870;2023-07-20T04:38:21;18.20;99.90
7117;DHT22;3600;48.568;7.870;2023-07-20T04:40:49;18.00;99.90
7117;DHT22;3600;48.568;7.870;2023-07-20T04:43:17;17.80;99.90
7117;DHT22;3600;48.568;7.870;2023-07-20T04:45:44;17.80;99.90
7117;DHT22;3600;48.568;7.870;2023-07-20T04:48:16;17.80;99.90
7117;DHT22;3600;48.568;7.870;2023-07-20T04:50:45;17.70;99.90
7117;DHT22;3600;48.568;7.870;2023-07-20T04:53:12;17.70;99.90
7117;DHT22;3600;48.568;7.870;2023-07-20T04:55:40;17.90;99.90
7117;DHT22;3600;48.568;7.870;2023-07-20T04:58:07;18.20;99.90
7117;DHT22;3600;48.568;7.870;2023-07-20T05:00:34;18.20;99.90
7117;DHT22;3600;48.568;7.870;2023-07-20T05:03:01;18.20;99.90
7117;DHT22;3600;48.568;7.870;2023-07-20T05:05:28;18.20;99.90
7117;DHT22;3600;48.568;7.870;2023-07-20T05:07:55;18.10;99.90
7117;DHT22;3600;48.568;7.870;2023-07-20T05:10:22;18.10;99.90
7117;DHT22;3600;48.568;7.870;2023-07-20T05:12:49;18.40;99.90
7117;DHT22;3600;48.568;7.870;2023-07-20T05:15:16;18.60;99.90
7117;DHT22;3600;48.568;7.870;2023-07-20T05:17:43;18.40;99.90
7117;DHT22;3600;48.568;7.870;2023-07-20T05:20:10;18.50;99.90
7117;DHT22;3600;48.568;7.870;2023-07-20T05:22:37;18.30;99.90
7117;DHT22;3600;48.568;7.870;2023-07-20T05:25:08;18.30;99.90
7117;DHT22;3600;48.568;7.870;2023-07-20T05:27:40;18.30;99.90
7117;DHT22;3600;48.568;7.870;2023-07-20T05:30:07;18.30;99.90
7117;DHT22;3600;48.568;7.870;2023-07-20T05:32:34;18.30;99.90
7117;DHT22;3600;48.568;7.870;2023-07-20T05:35:01;18.30;99.90
7117;DHT22;3600;48.568;7.870;2023-07-20T05:37:28;18.30;99.90
7117;DHT22;3600;48.568;7.870;2023-07-20T05:39:55;18.30;99.90
7117;DHT22;3600;48.568;7.870;2023-07-20T05:42:22;18.40;99.90
7117;DHT22;3600;48.568;7.870;2023-07-20T05:44:48;18.30;99.90
7117;DHT22;3600;48.568;7.870;2023-07-20T05:47:16;18.30;99.90
7117;DHT22;3600;48.568;7.870;2023-07-20T05:49:43;18.30;99.90
7117;DHT22;3600;48.568;7.870;2023-07-20T05:52:10;18.40;99.90
7117;DHT22;3600;48.568;7.870;2023-07-20T05:54:37;18.70;99.90
7117;DHT22;3600;48.568;7.870;2023-07-20T05:57:04;18.70;99.90
7117;DHT22;3600;48.568;7.870;2023-07-20T05:59:31;18.80;99.90
7117;DHT22;3600;48.568;7.870;2023-07-20T06:01:59;18.90;99.90
7117;DHT22;3600;48.568;7.870;2023-07-20T06:04:26;19.00;99.90
7117;DHT22;3600;48.568;7.870;2023-07-20T06:06:53;19.00;99.90
7117;DHT22;3600;48.568;7.870;2023-07-20T06:09:20;19.00;99.90
7117;DHT22;3600;48.568;7.870;2023-07-20T06:11:47;19.00;99.90
7117;DHT22;3600;48.568;7.870;2023-07-20T06:14:13;19.00;99.90
7117;DHT22;3600;48.568;7.870;2023-07-20T06:16:40;19.20;99.90
7117;DHT22;3600;48.568;7.870;2023-07-20T06:19:07;19.20;99.90
7117;DHT22;3600;48.568;7.870;2023-07-20T06:21:34;19.30;99.90
7117;DHT22;3600;48.568;7.870;2023-07-20T06:24:01;19.40;99.90
7117;DHT22;3600;48.568;7.870;2023-07-20T06:26:28;19.40;99.90
7117;DHT22;3600;48.568;7.870;2023-07-20T06:28:56;19.40;99.90
7117;DHT22;3600;48.568;7.870;2023-07-20T06:31:23;19.50;99.90
7117;DHT22;3600;48.568;7.870;2023-07-20T06:33:50;19.60;99.90
7117;DHT22;3600;48.568;7.870;2023-07-20T06:36:18;19.50;99.90
7117;DHT22;3600;48.568;7.870;2023-07-20T06:38:45;19.50;99.90
7117;DHT22;3600;48.568;7.870;2023-07-20T06:41:32;19.80;99.90
7117;DHT22;3600;48.568;7.870;2023-07-20T06:44:02;19.80;99.90
7117;DHT22;3600;48.568;7.870;2023-07-20T06:46:29;19.90;99.90
7117;DHT22;3600;48.568;7.870;2023-07-20T06:48:55;19.80;99.90
7117;DHT22;3600;48.568;7.870;2023-07-20T06:51:26;19.80;99.90
7117;DHT22;3600;48.568;7.870;2023-07-20T06:53:53;19.80;99.90
7117;DHT22;3600;48.568;7.870;2023-07-20T06:56:20;20.10;99.90
7117;DHT22;3600;48.568;7.870;2023-07-20T06:58:51;20.20;99.90
7117;DHT22;3600;48.568;7.870;2023-07-20T07:01:18;20.10;99.90
7117;DHT22;3600;48.568;7.870;2023-07-20T07:03:48;20.00;99.90
7117;DHT22;3600;48.568;7.870;2023-07-20T07:06:19;20.00;99.90
7117;DHT22;3600;48.568;7.870;2023-07-20T07:08:48;20.00;99.90
7117;DHT22;3600;48.568;7.870;2023-07-20T07:11:15;20.10;99.90
7117;DHT22;3600;48.568;7.870;2023-07-20T07:13:42;20.10;99.90
7117;DHT22;3600;48.568;7.870;2023-07-20T07:16:08;20.30;99.90
7117;DHT22;3600;48.568;7.870;2023-07-20T07:18:35;20.30;99.90
7117;DHT22;3600;48.568;7.870;2023-07-20T07:21:03;20.30;99.90
7117;DHT22;3600;48.568;7.870;2023-07-20T07:23:30;20.30;99.90
7117;DHT22;3600;48.568;7.870;2023-07-20T07:25:57;20.30;99.90
7117;DHT22;3600;48.568;7.870;2023-07-20T07:28:23;20.20;99.90
7117;DHT22;3600;48.568;7.870;2023-07-20T07:30:50;20.30;99.90
7117;DHT22;3600;48.568;7.870;2023-07-20T07:33:17;20.50;99.90
7117;DHT22;3600;48.568;7.870;2023-07-20T07:35:44;20.60;99.90
7117;DHT22;3600;48.568;7.870;2023-07-20T07:38:11;20.60;99.90
7117;DHT22;3600;48.568;7.870;2023-07-20T07:40:58;20.50;99.90
7117;DHT22;3600;48.568;7.870;2023-07-20T07:43:25;20.60;99.90
7117;DHT22;3600;48.568;7.870;2023-07-20T07:45:54;20.70;99.90
7117;DHT22;3600;48.568;7.870;2023-07-20T07:48:21;20.70;99.90
7117;DHT22;3600;48.568;7.870;2023-07-20T07:50:48;20.60;99.90
7117;DHT22;3600;48.568;7.870;2023-07-20T07:53:16;20.70;99.90
7117;DHT22;3600;48.568;7.870;2023-07-20T07:55:43;20.80;99.90
7117;DHT22;3600;48.568;7.870;2023-07-20T07:58:10;20.70;99.90
7117;DHT22;3600;48.568;7.870;2023-07-20T08:00:37;20.60;99.90
7117;DHT22;3600;48.568;7.870;2023-07-20T08:03:04;20.70;99.90
7117;DHT22;3600;48.568;7.870;2023-07-20T08:05:31;20.80;99.90
7117;DHT22;3600;48.568;7.870;2023-07-20T08:07:57;20.90;99.90
7117;DHT22;3600;48.568;7.870;2023-07-20T08:10:24;21.00;99.90
7117;DHT22;3600;48.568;7.870;2023-07-20T08:12:51;21.10;99.90
7117;DHT22;3600;48.568;7.870;2023-07-20T08:15:18;21.20;99.90
7117;DHT22;3600;48.568;7.870;2023-07-20T08:17:45;21.30;99.90
7117;DHT22;3600;48.568;7.870;2023-07-20T08:20:13;21.40;99.90
7117;DHT22;3600;48.568;7.870;2023-07-20T08:22:40;21.40;99.90
7117;DHT22;3600;48.568;7.870;2023-07-20T08:25:08;21.30;99.90
7117;DHT22;3600;48.568;7.870;2023-07-20T08:27:36;21.50;99.90
7117;DHT22;3600;48.568;7.870;2023-07-20T08:30:03;21.50;99.90
7117;DHT22;3600;48.568;7.870;2023-07-20T08:32:32;21.60;99.90
7117;DHT22;3600;48.568;7.870;2023-07-20T08:34:59;21.50;99.90
7117;DHT22;3600;48.568;7.870;2023-07-20T08:37:26;21.60;99.90
7117;DHT22;3600;48.568;7.870;2023-07-20T08:39:52;21.60;99.90
7117;DHT22;3600;48.568;7.870;2023-07-20T08:42:19;21.60;99.90
7117;DHT22;3600;48.568;7.870;2023-07-20T08:44:48;21.60;99.90
7117;DHT22;3600;48.568;7.870;2023-07-20T08:47:16;22.00;99.90
7117;DHT22;3600;48.568;7.870;2023-07-20T08:49:44;21.90;99.90
7117;DHT22;3600;48.568;7.870;2023-07-20T08:52:14;21.80;99.90
7117;DHT22;3600;48.568;7.870;2023-07-20T08:54:41;21.80;99.90
7117;DHT22;3600;48.568;7.870;2023-07-20T08:57:08;21.90;99.90
7117;DHT22;3600;48.568;7.870;2023-07-20T08:59:39;22.10;99.90
7117;DHT22;3600;48.568;7.870;2023-07-20T09:02:07;22.10;99.90
7117;DHT22;3600;48.568;7.870;2023-07-20T09:04:35;22.20;99.90
7117;DHT22;3600;48.568;7.870;2023-07-20T09:07:03;22.10;99.90
7117;DHT22;3600;48.568;7.870;2023-07-20T09:09:30;22.10;99.90
7117;DHT22;3600;48.568;7.870;2023-07-20T09:11:57;22.40;99.90
7117;DHT22;3600;48.568;7.870;2023-07-20T09:14:23;22.60;99.90
7117;DHT22;3600;48.568;7.870;2023-07-20T09:16:54;22.80;98.50
7117;DHT22;3600;48.568;7.870;2023-07-20T09:19:21;22.40;97.90
7117;DHT22;3600;48.568;7.870;2023-07-20T09:21:49;22.50;98.00
7117;DHT22;3600;48.568;7.870;2023-07-20T09:24:20;22.30;98.40
7117;DHT22;3600;48.568;7.870;2023-07-20T09:26:48;22.40;97.80
7117;DHT22;3600;48.568;7.870;2023-07-20T09:29:18;22.60;98.10
7117;DHT22;3600;48.568;7.870;2023-07-20T09:32:02;22.80;97.80
7117;DHT22;3600;48.568;7.870;2023-07-20T09:34:30;22.90;97.50
7117;DHT22;3600;48.568;7.870;2023-07-20T09:37:03;23.00;98.70
7117;DHT22;3600;48.568;7.870;2023-07-20T09:39:31;23.30;99.40
7117;DHT22;3600;48.568;7.870;2023-07-20T09:42:01;23.20;98.30
7117;DHT22;3600;48.568;7.870;2023-07-20T09:44:31;23.10;97.90
7117;DHT22;3600;48.568;7.870;2023-07-20T09:47:03;23.20;97.90
7117;DHT22;3600;48.568;7.870;2023-07-20T09:49:31;23.40;97.80
7117;DHT22;3600;48.568;7.870;2023-07-20T09:52:19;23.30;97.50
7117;DHT22;3600;48.568;7.870;2023-07-20T09:54:49;23.10;97.70
7117;DHT22;3600;48.568;7.870;2023-07-20T09:57:16;23.20;96.90
7117;DHT22;3600;48.568;7.870;2023-07-20T09:59:43;23.10;97.20
7117;DHT22;3600;48.568;7.870;2023-07-20T10:02:21;22.80;97.30
7117;DHT22;3600;48.568;7.870;2023-07-20T10:04:52;22.90;97.80
7117;DHT22;3600;48.568;7.870;2023-07-20T10:07:22;23.10;97.60
7117;DHT22;3600;48.568;7.870;2023-07-20T10:09:51;23.20;97.80
7117;DHT22;3600;48.568;7.870;2023-07-20T10:12:22;23.30;97.10
7117;DHT22;3600;48.568;7.870;2023-07-20T10:15:11;23.40;97.20
7117;DHT22;3600;48.568;7.870;2023-07-20T10:17:44;23.60;97.60
7117;DHT22;3600;48.568;7.870;2023-07-20T10:20:17;23.80;97.80
7117;DHT22;3600;48.568;7.870;2023-07-20T10:22:47;23.80;97.20
7117;DHT22;3600;48.568;7.870;2023-07-20T10:25:15;23.70;96.50
7117;DHT22;3600;48.568;7.870;2023-07-20T10:27:43;23.60;97.80
7117;DHT22;3600;48.568;7.870;2023-07-20T10:30:10;23.30;97.60
7117;DHT22;3600;48.568;7.870;2023-07-20T10:32:37;23.10;97.80
7117;DHT22;3600;48.568;7.870;2023-07-20T10:35:13;23.50;97.70
7117;DHT22;3600;48.568;7.870;2023-07-20T10:42:59;23.20;97.40
7117;DHT22;3600;48.568;7.870;2023-07-20T10:48:19;23.90;97.30
7117;DHT22;3600;48.568;7.870;2023-07-20T10:51:13;23.30;96.10
7117;DHT22;3600;48.568;7.870;2023-07-20T10:53:40;23.60;97.30
7117;DHT22;3600;48.568;7.870;2023-07-20T10:56:15;23.80;98.10
7117;DHT22;3600;48.568;7.870;2023-07-20T10:58:45;23.90;96.70
7117;DHT22;3600;48.568;7.870;2023-07-20T11:01:16;23.90;95.70
7117;DHT22;3600;48.568;7.870;2023-07-20T11:03:49;23.70;94.20
7117;DHT22;3600;48.568;7.870;2023-07-20T11:11:28;24.00;93.90
7117;DHT22;3600;48.568;7.870;2023-07-20T11:14:00;23.60;93.60
7117;DHT22;3600;48.568;7.870;2023-07-20T11:16:37;23.70;93.10
7117;DHT22;3600;48.568;7.870;2023-07-20T11:19:05;24.50;95.50
7117;DHT22;3600;48.568;7.870;2023-07-20T11:21:37;24.80;92.70
7117;DHT22;3600;48.568;7.870;2023-07-20T11:24:17;24.80;95.50
7117;DHT22;3600;48.568;7.870;2023-07-20T11:26:48;25.20;92.30
7117;DHT22;3600;48.568;7.870;2023-07-20T11:29:16;24.90;92.10
7117;DHT22;3600;48.568;7.870;2023-07-20T11:31:58;25.10;94.20
7117;DHT22;3600;48.568;7.870;2023-07-20T11:34:32;24.90;92.70
7117;DHT22;3600;48.568;7.870;2023-07-20T11:37:00;24.80;92.40
7117;DHT22;3600;48.568;7.870;2023-07-20T11:39:30;24.80;92.70
7117;DHT22;3600;48.568;7.870;2023-07-20T11:41:57;24.60;91.80
7117;DHT22;3600;48.568;7.870;2023-07-20T11:44:26;24.10;92.30
7117;DHT22;3600;48.568;7.870;2023-07-20T11:49:41;24.20;93.20
7117;DHT22;3600;48.568;7.870;2023-07-20T11:52:34;24.00;92.50
7117;DHT22;3600;48.568;7.870;2023-07-20T11:55:01;23.70;94.60
7117;DHT22;3600;48.568;7.870;2023-07-20T11:57:29;23.70;94.90
7117;DHT22;3600;48.568;7.870;2023-07-20T12:00:02;24.00;95.40
7117;DHT22;3600;48.568;7.870;2023-07-20T12:02:38;24.20;95.50
7117;DHT22;3600;48.568;7.870;2023-07-20T12:05:07;24.20;93.50
7117;DHT22;3600;48.568;7.870;2023-07-20T12:07:36;24.40;94.60
7117;DHT22;3600;48.568;7.870;2023-07-20T12:10:08;24.60;94.90
7117;DHT22;3600;48.568;7.870;2023-07-20T12:12:43;25.00;94.90
7117;DHT22;3600;48.568;7.870;2023-07-20T12:15:25;25.40;95.10
7117;DHT22;3600;48.568;7.870;2023-07-20T12:17:54;25.30;93.80
7117;DHT22;3600;48.568;7.870;2023-07-20T12:20:33;25.80;94.10
7117;DHT22;3600;48.568;7.870;2023-07-20T12:23:10;26.20;93.90
7117;DHT22;3600;48.568;7.870;2023-07-20T12:28:12;25.80;93.50
7117;DHT22;3600;48.568;7.870;2023-07-20T12:30:42;26.00;93.40
7117;DHT22;3600;48.568;7.870;2023-07-20T12:33:09;26.30;93.80
7117;DHT22;3600;48.568;7.870;2023-07-20T12:35:36;26.70;93.70
7117;DHT22;3600;48.568;7.870;2023-07-20T12:38:03;26.70;92.10
7117;DHT22;3600;48.568;7.870;2023-07-20T12:40:30;27.10;91.90
7117;DHT22;3600;48.568;7.870;2023-07-20T12:42:57;26.70;89.80
7117;DHT22;3600;48.568;7.870;2023-07-20T12:45:24;26.50;91.70
7117;DHT22;3600;48.568;7.870;2023-07-20T12:47:51;27.00;91.10
7117;DHT22;3600;48.568;7.870;2023-07-20T12:50:18;26.00;89.60
7117;DHT22;3600;48.568;7.870;2023-07-20T12:52:45;25.90;91.80
7117;DHT22;3600;48.568;7.870;2023-07-20T12:55:12;25.70;90.90
7117;DHT22;3600;48.568;7.870;2023-07-20T12:57:38;25.40;90.70
7117;DHT22;3600;48.568;7.870;2023-07-20T13:00:09;25.20;90.80
7117;DHT22;3600;48.568;7.870;2023-07-20T13:02:37;25.50;90.30
7117;DHT22;3600;48.568;7.870;2023-07-20T13:05:05;25.40;91.00
7117;DHT22;3600;48.568;7.870;2023-07-20T13:07:36;25.70;92.10
7117;DHT22;3600;48.568;7.870;2023-07-20T13:10:06;26.00;91.80
7117;DHT22;3600;48.568;7.870;2023-07-20T13:12:34;25.70;90.20
7117;DHT22;3600;48.568;7.870;2023-07-20T13:15:03;25.60;90.50
7117;DHT22;3600;48.568;7.870;2023-07-20T13:17:33;25.00;90.00
7117;DHT22;3600;48.568;7.870;2023-07-20T13:20:01;25.40;89.90
7117;DHT22;3600;48.568;7.870;2023-07-20T13:22:29;25.40;90.60
7117;DHT22;3600;48.568;7.870;2023-07-20T13:24:56;25.70;88.30
7117;DHT22;3600;48.568;7.870;2023-07-20T13:27:23;26.00;90.90
7117;DHT22;3600;48.568;7.870;2023-07-20T13:29:50;25.80;88.80
7117;DHT22;3600;48.568;7.870;2023-07-20T13:32:18;25.60;89.00
7117;DHT22;3600;48.568;7.870;2023-07-20T13:34:45;26.00;91.10
7117;DHT22;3600;48.568;7.870;2023-07-20T13:37:14;26.60;91.30
7117;DHT22;3600;48.568;7.870;2023-07-20T13:39:42;26.30;90.10
7117;DHT22;3600;48.568;7.870;2023-07-20T13:42:10;25.70;88.80
7117;DHT22;3600;48.568;7.870;2023-07-20T13:44:39;25.50;90.30
7117;DHT22;3600;48.568;7.870;2023-07-20T13:47:06;25.30;90.80
7117;DHT22;3600;48.568;7.870;2023-07-20T13:49:37;25.60;91.40
7117;DHT22;3600;48.568;7.870;2023-07-20T13:52:14;25.80;91.60
7117;DHT22;3600;48.568;7.870;2023-07-20T13:54:43;25.90;90.40
7117;DHT22;3600;48.568;7.870;2023-07-20T13:57:16;26.20;90.90
7117;DHT22;3600;48.568;7.870;2023-07-20T13:59:43;26.60;89.50
7117;DHT22;3600;48.568;7.870;2023-07-20T14:02:10;26.80;88.80
7117;DHT22;3600;48.568;7.870;2023-07-20T14:04:40;26.40;90.00
7117;DHT22;3600;48.568;7.870;2023-07-20T14:07:08;26.00;86.60
7117;DHT22;3600;48.568;7.870;2023-07-20T14:09:35;26.40;90.20
7117;DHT22;3600;48.568;7.870;2023-07-20T14:12:02;26.30;89.70
7117;DHT22;3600;48.568;7.870;2023-07-20T14:14:32;26.10;90.00
7117;DHT22;3600;48.568;7.870;2023-07-20T14:16:59;26.40;90.60
7117;DHT22;3600;48.568;7.870;2023-07-20T14:19:26;26.50;90.60
7117;DHT22;3600;48.568;7.870;2023-07-20T14:21:52;26.20;89.40
7117;DHT22;3600;48.568;7.870;2023-07-20T14:24:19;26.20;90.00
7117;DHT22;3600;48.568;7.870;2023-07-20T14:26:46;25.60;86.50
7117;DHT22;3600;48.568;7.870;2023-07-20T14:29:18;25.40;87.60
7117;DHT22;3600;48.568;7.870;2023-07-20T14:31:45;26.20;90.50
7117;DHT22;3600;48.568;7.870;2023-07-20T14:34:19;26.30;90.50
7117;DHT22;3600;48.568;7.870;2023-07-20T14:36:46;25.90;87.30
7117;DHT22;3600;48.568;7.870;2023-07-20T14:39:12;26.30;90.40
7117;DHT22;3600;48.568;7.870;2023-07-20T14:41:39;26.50;90.00
7117;DHT22;3600;48.568;7.870;2023-07-20T14:44:06;26.20;89.80
7117;DHT22;3600;48.568;7.870;2023-07-20T14:46:33;25.70;88.00
7117;DHT22;3600;48.568;7.870;2023-07-20T14:49:00;25.70;89.00
7117;DHT22;3600;48.568;7.870;2023-07-20T14:51:27;25.90;88.60
7117;DHT22;3600;48.568;7.870;2023-07-20T14:54:01;26.30;90.50
7117;DHT22;3600;48.568;7.870;2023-07-20T14:56:28;26.50;89.70
7117;DHT22;3600;48.568;7.870;2023-07-20T14:58:55;26.60;88.80
7117;DHT22;3600;48.568;7.870;2023-07-20T15:01:21;25.80;84.60
7117;DHT22;3600;48.568;7.870;2023-07-20T15:03:49;25.90;90.20
7117;DHT22;3600;48.568;7.870;2023-07-20T15:06:19;26.20;90.10
7117;DHT22;3600;48.568;7.870;2023-07-20T15:08:46;26.70;88.90
7117;DHT22;3600;48.568;7.870;2023-07-20T15:11:13;26.90;89.00
7117;DHT22;3600;48.568;7.870;2023-07-20T15:13:39;26.50;89.20
7117;DHT22;3600;48.568;7.870;2023-07-20T15:16:09;26.40;90.20
7117;DHT22;3600;48.568;7.870;2023-07-20T15:18:39;26.50;90.00
7117;DHT22;3600;48.568;7.870;2023-07-20T15:21:14;26.30;88.00
7117;DHT22;3600;48.568;7.870;2023-07-20T15:23:42;26.30;92.30
7117;DHT22;3600;48.568;7.870;2023-07-20T15:26:09;26.20;90.10
7117;DHT22;3600;48.568;7.870;2023-07-20T15:28:38;26.20;90.60
7117;DHT22;3600;48.568;7.870;2023-07-20T15:31:05;26.60;88.60
7117;DHT22;3600;48.568;7.870;2023-07-20T15:33:31;26.40;91.00
7117;DHT22;3600;48.568;7.870;2023-07-20T15:35:58;26.00;89.90
7117;DHT22;3600;48.568;7.870;2023-07-20T15:38:25;25.80;90.10
7117;DHT22;3600;48.568;7.870;2023-07-20T15:40:52;25.50;89.70
7117;DHT22;3600;48.568;7.870;2023-07-20T15:43:20;25.70;91.90
7117;DHT22;3600;48.568;7.870;2023-07-20T15:45:48;25.60;90.90
7117;DHT22;3600;48.568;7.870;2023-07-20T15:48:18;25.60;91.00
7117;DHT22;3600;48.568;7.870;2023-07-20T15:50:49;26.10;91.20
7117;DHT22;3600;48.568;7.870;2023-07-20T15:53:16;26.30;89.60
7117;DHT22;3600;48.568;7.870;2023-07-20T15:55:43;26.30;89.30
7117;DHT22;3600;48.568;7.870;2023-07-20T15:58:10;25.90;90.90
7117;DHT22;3600;48.568;7.870;2023-07-20T16:00:37;25.60;90.40
7117;DHT22;3600;48.568;7.870;2023-07-20T16:03:04;26.10;90.50
7117;DHT22;3600;48.568;7.870;2023-07-20T16:05:32;26.20;90.70
7117;DHT22;3600;48.568;7.870;2023-07-20T16:08:00;26.10;90.40
7117;DHT22;3600;48.568;7.870;2023-07-20T16:10:26;26.10;89.80
7117;DHT22;3600;48.568;7.870;2023-07-20T16:12:55;25.90;89.30
7117;DHT22;3600;48.568;7.870;2023-07-20T16:15:22;26.20;89.50
7117;DHT22;3600;48.568;7.870;2023-07-20T16:17:53;26.00;89.30
7117;DHT22;3600;48.568;7.870;2023-07-20T16:20:20;26.20;88.00
7117;DHT22;3600;48.568;7.870;2023-07-20T16:22:47;26.30;89.60
7117;DHT22;3600;48.568;7.870;2023-07-20T16:25:14;26.20;90.80
7117;DHT22;3600;48.568;7.870;2023-07-20T16:27:40;25.90;89.10
7117;DHT22;3600;48.568;7.870;2023-07-20T16:30:07;25.70;89.90
7117;DHT22;3600;48.568;7.870;2023-07-20T16:32:34;25.60;86.90
7117;DHT22;3600;48.568;7.870;2023-07-20T16:35:01;25.60;90.20